Time;durP1;ratioP1;P1;durP2;ratioP2;P2;SDS_P1;SDS_P2;PMS_P1;PMS_P2;Temp;Humidity;BMP_temperature;BMP_pressure;BME280_temperature;BME280_humidity;BME280_pressure;Samples;Min_cycle;Max_cycle;Signal;HPM_P1;HPM_P2
2022/12/26 00:01:46;;;;;;;210.47;34.00;;;;;;;8.39;100.00;149569.81;5065288;28;20028;-67
2022/12/26 00:04:11;;;;;;;192.03;34.17;;;;;;;8.40;100.00;149572.41;5069431;28;20098;-67
2022/12/26 00:06:37;;;;;;;219.17;34.13;;;;;;;8.35;100.00;149559.44;5069634;28;20028;-67
2022/12/26 00:09:04;;;;;;;196.03;33.30;;;;;;;8.35;100.00;149559.44;5069671;28;20479;-67
2022/12/26 00:11:30;;;;;;;216.37;33.93;;;;;;;8.34;100.00;149556.81;5066212;28;20036;-67
2022/12/26 00:14:04;;;;;;;228.10;36.17;;;;;;;8.37;100.00;149565.94;5070484;28;20050;-67
2022/12/26 00:16:30;;;;;;;238.43;34.57;;;;;;;8.39;100.00;149569.81;5069794;28;20032;-66
2022/12/26 00:18:56;;;;;;;243.10;34.93;;;;;;;8.38;100.00;149567.25;5069529;28;20035;-67
2022/12/26 00:21:22;;;;;;;283.37;35.93;;;;;;;8.41;100.00;149575.00;5070433;28;20029;-67
2022/12/26 00:23:48;;;;;;;278.40;37.17;;;;;;;8.41;100.00;149575.00;5070873;28;20040;-66
2022/12/26 00:26:16;;;;;;;311.53;38.40;;;;;;;8.43;100.00;149580.16;5070178;28;20491;-68
2022/12/26 00:28:42;;;;;;;247.73;34.57;;;;;;;8.40;100.00;149572.41;5069559;28;20487;-67
2022/12/26 00:31:11;;;;;;;244.97;36.03;;;;;;;8.38;100.00;149568.53;5066571;28;20024;-67
2022/12/26 00:33:37;;;;;;;247.57;36.07;;;;;;;8.45;100.00;149585.31;5071946;28;20040;-68
2022/12/26 00:36:12;;;;;;;242.50;35.17;;;;;;;8.40;100.00;149573.69;5073180;28;20066;-67
2022/12/26 00:38:41;;;;;;;227.90;33.17;;;;;;;8.42;100.00;149577.56;5073451;28;20031;-67
2022/12/26 00:41:07;;;;;;;213.20;33.40;;;;;;;8.43;100.00;149580.16;5073020;28;20054;-66
2022/12/26 00:43:33;;;;;;;247.90;34.43;;;;;;;8.44;100.00;149582.75;5066500;28;20060;-67
2022/12/26 00:45:58;;;;;;;210.40;34.17;;;;;;;8.46;100.00;149587.91;5069205;28;20079;-67
2022/12/26 00:48:24;;;;;;;208.07;33.33;;;;;;;8.45;100.00;149585.31;5070734;28;20021;-68
2022/12/26 00:50:49;;;;;;;184.27;31.73;;;;;;;8.44;100.00;149582.75;5071047;28;20055;-68
2022/12/26 00:53:15;;;;;;;226.17;33.00;;;;;;;8.42;100.00;149577.56;5072056;28;20135;-67
2022/12/26 00:55:41;;;;;;;179.23;31.67;;;;;;;8.45;100.00;149586.59;5071968;28;20059;-68
2022/12/26 00:58:06;;;;;;;180.13;32.00;;;;;;;8.45;100.00;149586.59;5069634;28;20032;-69
2022/12/26 01:00:31;;;;;;;174.63;30.37;;;;;;;8.42;100.00;149577.56;5071387;28;20341;-67
2022/12/26 01:02:57;;;;;;;182.70;31.17;;;;;;;8.42;100.00;149577.56;5070736;28;20009;-67
2022/12/26 01:05:22;;;;;;;151.03;29.63;;;;;;;8.43;100.00;149580.16;5070653;28;20064;-68
2022/12/26 01:07:48;;;;;;;163.53;30.37;;;;;;;8.46;100.00;149589.19;5070474;28;20094;-65
2022/12/26 01:10:13;;;;;;;168.43;30.67;;;;;;;8.41;100.00;149576.28;5071253;28;20459;-67
2022/12/26 01:12:39;;;;;;;141.20;29.37;;;;;;;8.38;100.00;149567.25;5070499;28;20028;-66
2022/12/26 01:15:06;;;;;;;148.97;30.33;;;;;;;8.43;100.00;149580.16;5070293;28;20383;-66
2022/12/26 01:17:32;;;;;;;147.53;28.60;;;;;;;8.43;100.00;149580.16;5072290;28;20032;-66
2022/12/26 01:19:58;;;;;;;135.17;27.50;;;;;;;8.43;100.00;149580.16;5067597;28;20024;-67
2022/12/26 01:22:24;;;;;;;134.17;28.30;;;;;;;8.48;100.00;149593.09;5068957;28;20460;-66
2022/12/26 01:24:57;;;;;;;132.83;27.77;;;;;;;8.45;100.00;149586.59;5065336;28;20476;-67
2022/12/26 01:27:24;;;;;;;147.43;29.07;;;;;;;8.48;100.00;149593.09;5070978;28;20481;-68
2022/12/26 01:29:51;;;;;;;145.00;29.20;;;;;;;8.48;100.00;149593.09;5070326;28;20480;-67
2022/12/26 01:32:17;;;;;;;137.87;28.47;;;;;;;8.52;100.00;149603.44;5071094;28;20035;-68
2022/12/26 01:34:43;;;;;;;140.73;27.73;;;;;;;8.49;100.00;149597.00;5066880;28;20723;-68
2022/12/26 01:37:11;;;;;;;146.83;29.80;;;;;;;8.47;100.00;149591.78;5071096;28;20020;-66
2022/12/26 01:39:37;;;;;;;139.70;28.67;;;;;;;8.48;100.00;149593.09;5071100;28;20103;-66
2022/12/26 01:42:11;;;;;;;130.70;28.10;;;;;;;8.48;100.00;149593.09;5071093;28;20448;-67
2022/12/26 01:44:59;;;;;;;141.00;28.07;;;;;;;8.47;100.00;149591.78;5066707;28;20052;-67
2022/12/26 01:47:38;;;;;;;146.63;28.27;;;;;;;8.48;100.00;149594.41;5070832;28;20467;-67
2022/12/26 01:50:06;;;;;;;144.03;28.80;;;;;;;8.45;100.00;149585.31;5069967;28;20442;-67
2022/12/26 01:52:45;;;;;;;138.40;28.27;;;;;;;8.52;100.00;149603.44;5071552;28;20611;-67
2022/12/26 01:55:14;;;;;;;143.63;27.77;;;;;;;8.50;100.00;149598.28;5068788;28;20112;-67
2022/12/26 01:57:43;;;;;;;153.77;27.63;;;;;;;8.53;100.00;149606.03;5072280;28;20099;-67
2022/12/26 02:00:11;;;;;;;147.43;28.67;;;;;;;8.52;100.00;149604.72;5071735;28;20032;-68
2022/12/26 02:05:33;;;;;;;131.60;27.27;;;;;;;8.54;100.00;149608.59;5064372;22;20415;-63
2022/12/26 02:08:00;;;;;;;127.77;26.70;;;;;;;8.53;100.00;149606.03;5051716;28;20036;-63
2022/12/26 02:10:27;;;;;;;134.10;27.20;;;;;;;8.56;100.00;149613.75;5050204;28;20479;-63
2022/12/26 02:12:53;;;;;;;137.27;28.17;;;;;;;8.55;100.00;149609.91;5053467;28;20028;-63
2022/12/26 02:15:18;;;;;;;168.67;30.87;;;;;;;8.53;100.00;149606.03;5050969;28;20056;-64
2022/12/26 02:17:44;;;;;;;192.73;33.17;;;;;;;8.55;100.00;149609.91;5051318;28;20033;-63
2022/12/26 02:20:19;;;;;;;208.63;34.47;;;;;;;8.56;100.00;149612.47;5048528;28;20033;-63
2022/12/26 02:23:18;;;;;;;203.13;33.93;;;;;;;8.52;100.00;149603.44;5052003;28;20029;-63
2022/12/26 02:25:52;;;;;;;184.93;31.03;;;;;;;8.51;100.00;149600.84;5009490;28;20071;-63
2022/12/26 02:28:20;;;;;;;174.60;31.37;;;;;;;8.57;100.00;149616.34;5051726;28;20044;-64
2022/12/26 02:31:16;;;;;;;152.73;28.37;;;;;;;8.57;100.00;149615.06;5049757;28;20163;-63
2022/12/26 02:34:05;;;;;;;172.83;32.17;;;;;;;8.60;100.00;149624.13;5036133;28;20098;-63
2022/12/26 02:36:33;;;;;;;162.83;29.60;;;;;;;8.61;100.00;149626.72;5031697;28;20071;-63
2022/12/26 02:39:11;;;;;;;165.70;29.97;;;;;;;8.61;100.00;149626.72;5034633;28;20704;-63
2022/12/26 02:42:01;;;;;;;147.10;26.57;;;;;;;8.64;100.00;149634.47;5038006;28;20025;-63
2022/12/26 02:47:48;;;;;;;152.27;27.77;;;;;;;8.65;100.00;149635.75;5047830;28;20048;-63
2022/12/26 03:14:43;;;;;;;110.78;25.60;;;;;;;8.89;100.00;149696.53;5031031;28;20052;-63
2022/12/26 03:17:20;;;;;;;109.00;24.47;;;;;;;8.94;100.00;149709.47;5031259;28;20026;-63
2022/12/26 03:20:00;;;;;;;106.47;24.80;;;;;;;8.94;100.00;149709.47;5030057;28;20049;-64
2022/12/26 03:22:37;;;;;;;118.73;24.50;;;;;;;8.94;100.00;149709.47;5031468;28;20091;-64
2022/12/26 03:28:03;;;;;;;112.23;24.57;;;;;;;8.93;100.00;149708.16;5011686;28;20052;-64
2022/12/26 03:30:47;;;;;;;107.23;23.90;;;;;;;8.95;100.00;149712.03;5027829;28;20026;-63
2022/12/26 03:36:20;;;;;;;115.60;24.57;;;;;;;8.99;100.00;149722.41;5031034;28;20044;-63
2022/12/26 03:39:06;;;;;;;112.57;24.67;;;;;;;8.99;100.00;149722.41;5031446;28;20069;-63
2022/12/26 04:19:27;;;;;;;97.83;20.03;;;;;;;9.04;100.00;149736.63;5033262;28;20564;-65
2022/12/26 04:44:35;;;;;;;114.17;26.43;;;;;;;9.13;100.00;149758.63;5028954;28;20445;-64
2022/12/26 04:47:00;;;;;;;105.27;25.00;;;;;;;9.13;100.00;149757.34;5033781;28;20023;-64
2022/12/26 04:52:13;;;;;;;121.30;25.97;;;;;;;9.08;100.00;149745.66;5033399;28;20500;-64
2022/12/26 04:54:39;;;;;;;116.40;23.87;;;;;;;9.08;100.00;149746.97;5032928;28;20032;-64
2022/12/26 04:57:05;;;;;;;107.07;25.40;;;;;;;9.09;100.00;149748.31;5032746;28;20029;-64
2022/12/26 04:59:30;;;;;;;108.43;26.77;;;;;;;9.10;100.00;149750.88;5031913;28;20459;-64
2022/12/26 05:10:21;;;;;;;85.27;21.30;;;;;;;9.08;100.00;149745.66;5032636;28;20115;-64
2022/12/26 05:12:47;;;;;;;97.40;24.07;;;;;;;9.09;100.00;149748.31;5032193;28;20022;-64
2022/12/26 05:15:13;;;;;;;91.67;23.60;;;;;;;9.08;100.00;149745.66;5032149;28;20120;-64
2022/12/26 05:28:41;;;;;;;85.53;21.53;;;;;;;9.10;100.00;149752.16;5032118;28;20044;-63
2022/12/26 05:31:08;;;;;;;77.40;19.17;;;;;;;9.07;100.00;149743.09;5031829;28;20052;-64
2022/12/26 05:36:20;;;;;;;80.67;21.20;;;;;;;9.14;100.00;149761.22;5032328;28;20087;-63
2022/12/26 05:38:47;;;;;;;69.40;18.07;;;;;;;9.07;100.00;149743.09;5031955;28;20029;-63
2022/12/26 05:41:13;;;;;;;74.87;19.37;;;;;;;9.08;100.00;149745.66;5031302;28;20036;-64
2022/12/26 05:43:38;;;;;;;81.30;20.70;;;;;;;9.08;100.00;149746.97;5032601;28;20396;-63
2022/12/26 05:46:03;;;;;;;80.17;20.47;;;;;;;9.07;100.00;149743.09;5021478;28;20468;-65
2022/12/26 05:48:29;;;;;;;77.43;20.00;;;;;;;9.05;100.00;149739.22;5017577;28;20049;-66
2022/12/26 05:50:59;;;;;;;73.90;19.30;;;;;;;9.08;100.00;149745.66;5032173;28;20040;-65
2022/12/26 05:53:25;;;;;;;79.17;19.43;;;;;;;9.08;100.00;149745.66;5031531;28;20033;-65
2022/12/26 05:55:50;;;;;;;79.57;20.63;;;;;;;9.07;100.00;149743.09;5031708;28;20045;-65
2022/12/26 05:58:16;;;;;;;73.70;20.03;;;;;;;9.07;100.00;149744.38;5022271;28;20061;-65
2022/12/26 06:00:41;;;;;;;79.13;20.83;;;;;;;9.11;100.00;149753.47;5025032;28;21594;-64
2022/12/26 06:03:07;;;;;;;78.37;19.20;;;;;;;9.07;100.00;149743.09;5031647;28;20037;-65
2022/12/26 06:05:32;;;;;;;80.60;19.87;;;;;;;9.07;100.00;149743.09;5031232;28;20034;-63
2022/12/26 06:07:57;;;;;;;77.03;19.53;;;;;;;9.07;100.00;149743.09;5032513;28;20029;-63
2022/12/26 06:10:25;;;;;;;84.07;21.63;;;;;;;9.09;100.00;149748.31;5031797;28;20485;-63
2022/12/26 06:12:51;;;;;;;76.93;19.37;;;;;;;9.05;100.00;149737.91;5032136;28;20112;-63
2022/12/26 06:15:17;;;;;;;79.40;19.53;;;;;;;9.04;100.00;149735.34;5030399;28;20056;-63
2022/12/26 06:17:42;;;;;;;80.07;20.40;;;;;;;9.04;100.00;149735.34;5032492;28;20064;-63
2022/12/26 06:20:08;;;;;;;81.10;20.87;;;;;;;9.09;100.00;149749.59;5030299;28;20041;-63
2022/12/26 06:22:33;;;;;;;78.47;20.57;;;;;;;9.09;100.00;149748.31;5031704;28;20021;-63
2022/12/26 06:24:59;;;;;;;82.60;22.67;;;;;;;9.14;100.00;149761.22;5031420;28;20066;-63
2022/12/26 06:27:24;;;;;;;79.43;21.60;;;;;;;9.14;100.00;149761.22;5029071;28;20116;-63
2022/12/26 06:29:49;;;;;;;75.40;18.60;;;;;;;9.14;100.00;149761.22;5031311;28;20187;-62
2022/12/26 06:32:15;;;;;;;63.67;17.17;;;;;;;9.14;100.00;149759.94;5021746;28;20070;-63
2022/12/26 06:34:40;;;;;;;70.90;19.97;;;;;;;9.15;100.00;149763.78;5027306;28;20026;-63
2022/12/26 06:37:06;;;;;;;80.40;21.60;;;;;;;9.17;100.00;149767.69;5014623;28;20034;-62
2022/12/26 06:39:31;;;;;;;76.80;20.80;;;;;;;9.17;100.00;149768.97;5016960;28;20061;-62
2022/12/26 06:41:57;;;;;;;75.17;21.63;;;;;;;9.08;100.00;149745.66;5028344;28;20031;-63
2022/12/26 06:44:22;;;;;;;63.67;17.30;;;;;;;9.09;100.00;149748.31;5029138;28;20033;-62
2022/12/26 06:46:47;;;;;;;61.40;17.70;;;;;;;9.11;100.00;149753.47;5029647;28;20041;-62
2022/12/26 06:49:13;;;;;;;63.10;17.43;;;;;;;9.15;100.00;149762.50;5028904;28;20030;-63
2022/12/26 06:51:38;;;;;;;45.50;14.60;;;;;;;9.15;100.00;149763.78;5031554;28;20530;-62
2022/12/26 06:54:04;;;;;;;59.13;19.83;;;;;;;9.17;100.00;149768.97;5031472;28;20021;-62
2022/12/26 06:56:31;;;;;;;55.43;16.10;;;;;;;9.11;100.00;149753.47;5030700;28;20033;-62
2022/12/26 06:58:59;;;;;;;54.00;17.80;;;;;;;9.09;100.00;149748.31;5031399;28;20116;-62
2022/12/26 07:01:26;;;;;;;51.37;17.07;;;;;;;8.97;100.00;149717.25;5030057;28;20033;-63
2022/12/26 07:03:53;;;;;;;51.63;16.60;;;;;;;8.92;100.00;149705.59;5030903;28;20125;-62
2022/12/26 07:06:21;;;;;;;50.50;16.97;;;;;;;8.85;100.00;149686.22;5029348;28;20388;-62
2022/12/26 07:08:47;;;;;;;52.03;18.37;;;;;;;8.71;100.00;149652.53;5031309;28;20025;-62
2022/12/26 07:11:17;;;;;;;51.37;16.93;;;;;;;8.64;100.00;149634.47;5031147;28;20079;-62
2022/12/26 07:13:43;;;;;;;50.17;16.90;;;;;;;8.61;100.00;149626.72;5031842;28;20037;-62
2022/12/26 07:16:09;;;;;;;43.73;16.40;;;;;;;8.60;100.00;149624.13;5034472;28;20090;-62
2022/12/26 07:18:35;;;;;;;46.40;16.30;;;;;;;8.61;100.00;149625.44;5034443;28;20104;-61
2022/12/26 07:21:04;;;;;;;45.13;16.63;;;;;;;8.49;100.00;149597.00;5034523;28;20546;-62
2022/12/26 07:23:30;;;;;;;55.37;17.77;;;;;;;8.48;100.00;149593.09;5034052;28;20021;-62
2022/12/26 07:25:56;;;;;;;49.90;16.23;;;;;;;8.38;100.00;149567.25;5034922;28;20043;-62
2022/12/26 07:28:21;;;;;;;50.30;17.27;;;;;;;8.35;100.00;149559.44;5035156;28;20032;-62
2022/12/26 07:30:48;;;;;;;52.90;17.60;;;;;;;8.34;100.00;149558.16;5033562;28;20040;-62
2022/12/26 07:33:13;;;;;;;53.70;18.13;;;;;;;8.25;100.00;149534.88;5034382;28;20108;-61
2022/12/26 07:35:38;;;;;;;54.17;17.87;;;;;;;8.23;100.00;149529.66;5033896;28;20113;-62
2022/12/26 07:38:04;;;;;;;55.17;18.30;;;;;;;8.14;100.00;149507.72;5035086;28;20064;-62
2022/12/26 07:40:29;;;;;;;53.97;17.77;;;;;;;8.20;100.00;149523.22;5022155;28;20374;-62
2022/12/26 07:42:55;;;;;;;53.90;18.83;;;;;;;8.29;100.00;149543.91;5014842;28;20036;-62
2022/12/26 07:45:20;;;;;;;52.30;17.90;;;;;;;8.17;100.00;149514.19;5030280;28;20116;-61
2022/12/26 07:47:45;;;;;;;52.90;19.23;;;;;;;8.12;100.00;149501.28;5034673;28;20350;-62
2022/12/26 07:50:11;;;;;;;55.40;19.17;;;;;;;8.09;100.00;149494.78;5033778;28;20037;-61
2022/12/26 07:52:36;;;;;;;53.67;18.23;;;;;;;8.11;100.00;149499.94;5034545;28;20071;-62
2022/12/26 07:55:03;;;;;;;58.20;18.90;;;;;;;8.14;100.00;149507.72;5030305;28;20031;-61
2022/12/26 07:57:28;;;;;;;55.87;17.93;;;;;;;8.15;100.00;149509.03;5026253;28;20033;-61
2022/12/26 07:59:54;;;;;;;50.47;18.10;;;;;;;8.14;100.00;149506.44;5032997;28;20095;-62
2022/12/26 08:02:19;;;;;;;55.00;19.37;;;;;;;8.19;100.00;149520.63;5033873;28;20091;-61
2022/12/26 08:04:45;;;;;;;58.47;19.10;;;;;;;8.21;100.00;149525.81;5033201;28;20548;-62
2022/12/26 08:07:10;;;;;;;54.97;18.57;;;;;;;8.20;100.00;149523.22;5034476;28;20485;-62
2022/12/26 08:09:37;;;;;;;57.30;19.37;;;;;;;8.15;100.00;149510.31;5033638;28;20473;-61
2022/12/26 08:12:02;;;;;;;56.23;17.73;;;;;;;8.25;100.00;149534.88;5034373;28;20401;-61
2022/12/26 08:14:28;;;;;;;52.77;17.67;;;;;;;8.37;100.00;149564.66;5024029;28;20037;-61
2022/12/26 08:16:53;;;;;;;50.17;18.23;;;;;;;8.37;100.00;149564.66;5033480;28;20041;-61
2022/12/26 08:19:18;;;;;;;59.43;20.37;;;;;;;8.41;100.00;149575.00;5027390;28;20080;-62
2022/12/26 08:21:44;;;;;;;54.20;18.07;;;;;;;8.45;100.00;149586.59;5027216;28;20030;-62
2022/12/26 08:24:09;;;;;;;56.20;19.23;;;;;;;8.52;100.00;149603.44;5028281;28;20389;-61
2022/12/26 08:26:34;;;;;;;54.53;18.73;;;;;;;8.63;100.00;149631.88;5030651;28;20047;-62
2022/12/26 08:29:00;;;;;;;53.90;19.83;;;;;;;8.65;100.00;149637.06;5032575;28;20025;-61
2022/12/26 08:31:25;;;;;;;55.20;20.53;;;;;;;8.71;100.00;149651.25;5026911;28;20036;-62
2022/12/26 08:33:54;;;;;;;50.57;18.80;;;;;;;8.71;100.00;149652.53;5031898;28;20381;-61
2022/12/26 08:36:20;;;;;;;53.87;19.50;;;;;;;8.73;100.00;149656.47;5033608;28;20414;-61
2022/12/26 08:38:45;;;;;;;47.07;17.63;;;;;;;8.74;100.00;149660.34;5027313;28;20064;-62
2022/12/26 08:41:11;;;;;;;39.93;16.60;;;;;;;8.83;100.00;149682.28;5029270;28;20029;-61
2022/12/26 08:43:36;;;;;;;43.57;16.93;;;;;;;8.84;100.00;149684.88;5029160;28;20022;-61
2022/12/26 08:46:09;;;;;;;39.40;16.93;;;;;;;8.93;100.00;149708.16;5031688;28;20033;-61
2022/12/26 08:48:36;;;;;;;42.60;18.47;;;;;;;8.93;100.00;149706.88;5030764;28;20060;-61
2022/12/26 08:51:07;;;;;;;39.27;17.63;;;;;;;8.98;100.00;149719.84;5026774;28;20040;-62
2022/12/26 08:53:34;;;;;;;37.78;17.50;;;;;;;8.98;100.00;149719.84;5033603;28;20037;-61
2022/12/26 08:56:00;;;;;;;31.93;14.93;;;;;;;8.98;100.00;149719.84;5033128;28;20038;-61
2022/12/26 08:58:27;;;;;;;22.47;11.10;;;;;;;8.98;100.00;149719.84;5031100;28;20357;-62
2022/12/26 09:00:52;;;;;;;24.10;11.90;;;;;;;8.98;100.00;149719.84;5031489;28;20034;-61
2022/12/26 09:03:18;;;;;;;29.97;14.43;;;;;;;9.14;100.00;149761.22;5032219;28;20484;-62
2022/12/26 09:05:43;;;;;;;25.10;11.07;;;;;;;9.14;100.00;149761.22;5028299;28;20094;-61
2022/12/26 09:08:10;;;;;;;21.13;10.60;;;;;;;9.14;100.00;149761.22;5024369;28;20497;-61
2022/12/26 09:10:35;;;;;;;23.80;12.37;;;;;;;9.14;100.00;149761.22;5029541;28;20025;-61
2022/12/26 09:13:01;;;;;;;23.63;13.00;;;;;;;9.14;100.00;149761.22;5027537;28;20351;-61
2022/12/26 09:15:26;;;;;;;21.70;10.70;;;;;;;9.08;100.00;149746.97;5022622;28;20018;-61
2022/12/26 09:17:51;;;;;;;20.80;11.47;;;;;;;9.08;100.00;149746.97;5025165;28;20027;-62
2022/12/26 09:20:17;;;;;;;19.20;10.20;;;;;;;9.08;100.00;149746.97;5031926;28;20030;-60
2022/12/26 09:22:51;;;;;;;19.87;9.13;;;;;;;9.08;100.00;149746.97;5032524;28;20021;-62
2022/12/26 09:25:26;;;;;;;22.83;11.73;;;;;;;9.08;100.00;149746.97;5027191;28;20429;-60
2022/12/26 09:27:52;;;;;;;22.10;10.87;;;;;;;9.09;100.00;149748.31;5032963;28;20029;-60
2022/12/26 09:30:19;;;;;;;21.97;11.30;;;;;;;9.16;100.00;149766.38;5030540;28;20083;-61
2022/12/26 09:32:45;;;;;;;21.40;10.93;;;;;;;9.19;100.00;149772.84;5031412;28;20258;-61
2022/12/26 09:35:10;;;;;;;20.67;10.73;;;;;;;9.21;100.00;149779.34;5030445;28;20519;-60
2022/12/26 09:37:36;;;;;;;18.87;10.83;;;;;;;9.23;100.00;149783.22;5030872;28;20131;-61
2022/12/26 09:40:03;;;;;;;20.10;11.17;;;;;;;9.31;100.00;149805.19;5024471;28;20032;-60
2022/12/26 09:43:16;;;;;;;20.63;9.83;;;;;;;9.30;100.00;149802.59;5031541;28;20104;-61
2022/12/26 09:45:55;;;;;;;15.87;8.63;;;;;;;9.26;100.00;149792.25;4962755;28;20139;-60
2022/12/26 09:48:30;;;;;;;14.23;8.13;;;;;;;9.30;100.00;149802.59;4969973;28;20158;-61
2022/12/26 09:50:55;;;;;;;15.73;7.63;;;;;;;9.39;100.00;149825.91;4968654;28;20882;-60
2022/12/26 09:53:30;;;;;;;12.67;6.80;;;;;;;9.39;100.00;149825.91;4969134;28;20038;-61
2022/12/26 09:55:59;;;;;;;14.43;6.80;;;;;;;9.39;100.00;149825.91;4969581;28;20035;-60
2022/12/26 09:58:32;;;;;;;15.30;6.53;;;;;;;9.39;100.00;149825.91;4969184;28;20031;-61
2022/12/26 10:01:09;;;;;;;16.07;7.57;;;;;;;9.39;100.00;149825.91;4970128;28;20117;-61
2022/12/26 10:03:55;;;;;;;10.90;5.90;;;;;;;9.39;100.00;149825.91;4960943;28;20507;-60
2022/12/26 10:06:35;;;;;;;12.40;6.33;;;;;;;9.39;100.00;149825.91;4988623;28;20491;-60
2022/12/26 10:09:41;;;;;;;11.27;5.43;;;;;;;9.39;100.00;149825.91;4957470;28;20121;-62
2022/12/26 10:12:46;;;;;;;11.70;6.30;;;;;;;9.39;100.00;149825.91;4962434;28;20062;-61
2022/12/26 10:15:26;;;;;;;9.00;5.63;;;;;;;9.39;100.00;149825.91;4940893;28;20045;-61
2022/12/26 10:17:55;;;;;;;8.73;4.07;;;;;;;9.39;100.00;149825.91;4969741;28;20030;-62
2022/12/26 10:20:24;;;;;;;12.00;6.03;;;;;;;9.39;100.00;149825.91;5012382;28;20049;-62
2022/12/26 10:22:58;;;;;;;9.03;4.97;;;;;;;9.39;100.00;149825.91;5029790;28;20116;-61
2022/12/26 10:25:46;;;;;;;10.10;5.50;;;;;;;9.39;100.00;149825.91;5029950;28;20481;-61
2022/12/26 10:28:16;;;;;;;8.97;4.87;;;;;;;9.39;100.00;149825.91;5027859;28;20025;-61
2022/12/26 10:30:44;;;;;;;12.27;5.03;;;;;;;9.39;100.00;149825.91;5030927;28;20028;-60
2022/12/26 10:33:18;;;;;;;10.60;5.10;;;;;;;9.39;100.00;149825.91;5024402;28;20021;-61
2022/12/26 10:35:45;;;;;;;9.87;4.53;;;;;;;9.39;100.00;149825.91;5022688;28;20033;-61
2022/12/26 10:38:26;;;;;;;9.40;4.70;;;;;;;9.39;100.00;149825.91;5017843;28;20102;-61
2022/12/26 10:40:55;;;;;;;8.63;4.28;;;;;;;9.39;100.00;149825.91;5018991;28;20737;-61
2022/12/26 10:43:30;;;;;;;10.87;4.90;;;;;;;9.39;100.00;149825.91;5022247;28;20029;-61
2022/12/26 10:46:30;;;;;;;10.30;4.87;;;;;;;9.39;100.00;149825.91;5018043;28;20469;-61
2022/12/26 10:48:55;;;;;;;10.80;4.80;;;;;;;9.39;100.00;149825.91;5023119;28;20037;-61
2022/12/26 10:51:21;;;;;;;7.83;4.50;;;;;;;9.39;100.00;149825.91;5026655;28;20056;-62
2022/12/26 10:53:49;;;;;;;12.20;4.40;;;;;;;9.39;100.00;149825.91;5025612;28;20028;-61
2022/12/26 10:56:15;;;;;;;11.13;3.80;;;;;;;9.39;100.00;149825.91;5026575;28;21776;-61
2022/12/26 10:58:42;;;;;;;10.40;4.77;;;;;;;9.39;100.00;149825.91;5031356;28;20043;-60
2022/12/26 11:01:32;;;;;;;10.37;4.53;;;;;;;-145.18;100.00;114074.00;5026111;28;20032;-62
2022/12/26 11:04:00;;;;;;;7.17;3.90;;;;;;;-145.18;100.00;149825.91;5023734;28;20037;-61
2022/12/26 11:06:50;;;;;;;9.97;4.30;;;;;;;-145.18;100.00;114074.00;5025130;28;20044;-61
2022/12/26 11:09:44;;;;;;;11.37;4.07;;;;;;;9.39;100.00;149825.91;5022457;28;20033;-61
2022/12/26 11:12:38;;;;;;;9.03;3.77;;;;;;;-145.18;100.00;114074.00;5024715;28;20029;-60
2022/12/26 11:15:17;;;;;;;8.60;3.77;;;;;;;9.39;100.00;149825.91;5005226;28;20552;-61
2022/12/26 11:17:43;;;;;;;8.53;4.30;;;;;;;-145.18;100.00;114074.00;5023060;28;20025;-61
2022/12/26 11:20:11;;;;;;;6.63;3.50;;;;;;;;;;5022359;28;20048;-61
2022/12/26 11:22:36;;;;;;;8.47;3.53;;;;;;;-145.18;100.00;60484.78;5029977;28;20029;-61
2022/12/26 11:25:10;;;;;;;6.70;3.30;;;;;;;9.39;100.00;149825.91;5021287;28;20032;-60
2022/12/26 11:27:37;;;;;;;11.03;3.37;;;;;;;;;;5025194;28;20036;-61
2022/12/26 11:30:30;;;;;;;9.80;3.60;;;;;;;9.39;100.00;149825.91;5022380;28;20029;-61
2022/12/26 11:33:17;;;;;;;6.00;2.97;;;;;;;9.39;100.00;149825.91;5023580;28;20026;-61
2022/12/26 11:35:53;;;;;;;6.50;2.50;;;;;;;-145.18;100.00;114074.00;5021394;28;20035;-61
2022/12/26 11:38:38;;;;;;;7.00;3.20;;;;;;;9.39;100.00;149825.91;5023400;28;20051;-60
2022/12/26 11:41:38;;;;;;;7.67;4.20;;;;;;;9.39;100.00;149825.91;5021291;28;20499;-61
2022/12/26 11:44:11;;;;;;;6.63;3.10;;;;;;;9.39;100.00;149825.91;5015797;28;20037;-62
2022/12/26 11:46:59;;;;;;;6.50;3.57;;;;;;;9.39;100.00;149825.91;5021896;28;20090;-62
2022/12/26 11:49:38;;;;;;;7.20;3.67;;;;;;;9.39;100.00;149825.91;5021542;28;20641;-62
2022/12/26 11:52:28;;;;;;;7.10;3.50;;;;;;;9.39;100.00;149825.91;5021763;28;20408;-61
2022/12/26 11:54:54;;;;;;;6.73;4.07;;;;;;;9.39;100.00;149825.91;5021768;28;20110;-61
2022/12/26 11:57:31;;;;;;;10.13;4.40;;;;;;;9.39;100.00;149825.91;5021700;28;20040;-62
2022/12/26 12:00:18;;;;;;;9.87;3.90;;;;;;;9.39;100.00;149825.91;5017507;28;20120;-62
2022/12/26 12:02:44;;;;;;;10.13;3.60;;;;;;;9.39;100.00;149825.91;5019534;28;20072;-60
2022/12/26 12:05:42;;;;;;;9.07;3.47;;;;;;;9.39;100.00;149825.91;5023349;28;20689;-62
2022/12/26 12:08:22;;;;;;;7.43;3.63;;;;;;;-145.18;100.00;114074.00;5010536;28;20541;-62
2022/12/26 12:11:12;;;;;;;7.10;3.33;;;;;;;9.39;100.00;149825.91;5022123;28;20034;-62
2022/12/26 12:13:52;;;;;;;5.90;3.47;;;;;;;9.39;100.00;149825.91;5022092;28;20099;-61
2022/12/26 12:16:26;;;;;;;6.00;2.87;;;;;;;-145.18;100.00;114074.00;5022523;28;20508;-62
2022/12/26 12:19:03;;;;;;;7.77;4.07;;;;;;;;;;5026741;28;20577;-62
2022/12/26 12:21:47;;;;;;;6.90;3.33;;;;;;;9.39;100.00;149825.91;5022963;28;20200;-62
2022/12/26 12:24:21;;;;;;;4.57;1.77;;;;;;;9.39;100.00;149825.91;5030820;28;20068;-61
2022/12/26 12:26:46;;;;;;;2.37;1.00;;;;;;;9.39;100.00;149825.91;5021563;28;20033;-61
2022/12/26 12:29:23;;;;;;;2.73;1.00;;;;;;;9.39;100.00;149825.91;5022745;28;20504;-62
2022/12/26 12:31:54;;;;;;;1050.43;31.90;;;;;;;9.39;100.00;149825.91;5028371;28;20084;-62
2022/12/26 12:34:28;;;;;;;2.22;0.90;;;;;;;9.39;100.00;149825.91;5021421;28;20057;-61
2022/12/26 12:37:06;;;;;;;4.67;1.10;;;;;;;9.39;100.00;149825.91;5025145;28;20049;-62
2022/12/26 12:39:59;;;;;;;62.47;1.73;;;;;;;9.39;100.00;149825.91;5019830;28;20044;-61
2022/12/26 12:42:30;;;;;;;3.43;0.87;;;;;;;9.39;100.00;149825.91;5022721;28;20030;-61
2022/12/26 12:45:18;;;;;;;5.65;1.20;;;;;;;9.39;100.00;149825.91;5021824;28;20037;-62
2022/12/26 12:48:22;;;;;;;7.67;1.83;;;;;;;9.39;100.00;149825.91;5021108;28;20036;-62
2022/12/26 12:51:06;;;;;;;2.60;0.80;;;;;;;9.39;100.00;149825.91;5022332;28;20040;-61
2022/12/26 12:53:48;;;;;;;6.20;0.90;;;;;;;9.39;100.00;149825.91;5025619;28;20033;-62
2022/12/26 12:56:38;;;;;;;2.67;0.90;;;;;;;9.39;100.00;149825.91;5022160;28;20026;-61
2022/12/26 12:59:18;;;;;;;8.77;1.60;;;;;;;9.39;100.00;149825.91;5016679;28;20033;-62
2022/12/26 13:01:49;;;;;;;3.57;0.80;;;;;;;9.39;100.00;149825.91;5026831;28;20546;-61
2022/12/26 13:04:20;;;;;;;157.57;3.83;;;;;;;9.39;100.00;149825.91;5027602;28;20502;-61
2022/12/26 13:06:53;;;;;;;4.68;0.70;;;;;;;9.39;100.00;149825.91;5028587;28;20284;-61
2022/12/26 13:09:25;;;;;;;4.40;1.00;;;;;;;9.39;100.00;149825.91;5019067;28;20052;-62
2022/12/26 13:11:56;;;;;;;3.45;1.02;;;;;;;9.39;100.00;149825.91;5016066;28;20036;-62
2022/12/26 13:14:25;;;;;;;2.72;0.73;;;;;;;9.39;100.00;149825.91;5020160;28;20033;-61
2022/12/26 13:16:56;;;;;;;3.53;0.73;;;;;;;7.85;100.00;149434.03;5023677;28;20037;-61
2022/12/26 13:19:27;;;;;;;3.53;0.82;;;;;;;7.85;100.00;149434.03;5028267;28;20033;-61
2022/12/26 13:22:00;;;;;;;2.47;0.60;;;;;;;7.50;100.00;149343.59;5017539;28;20057;-62
2022/12/26 13:24:34;;;;;;;3.00;0.80;;;;;;;7.50;100.00;149343.59;5018540;28;20429;-62
2022/12/26 13:27:06;;;;;;;33.37;1.50;;;;;;;7.50;100.00;149343.59;5024289;28;20504;-62
2022/12/26 13:29:38;;;;;;;5.47;0.70;;;;;;;7.50;100.00;149343.59;5021873;28;20029;-61
2022/12/26 13:32:15;;;;;;;3.10;0.90;;;;;;;7.50;100.00;149343.59;5019900;28;20108;-62